sensor_id;sensor_type;location;lat;lon;timestamp;temperature;humidity
49731;DHT22;35622;52.008;5.426;2023-06-14T00:00:58;19.20;40.00
49731;DHT22;35622;52.008;5.426;2023-06-14T00:03:23;19.10;40.10
49731;DHT22;35622;52.008;5.426;2023-06-14T00:05:50;19.00;40.30
49731;DHT22;35622;52.008;5.426;2023-06-14T00:08:15;19.00;40.50
49731;DHT22;35622;52.008;5.426;2023-06-14T00:10:41;18.90;41.40
49731;DHT22;35622;52.008;5.426;2023-06-14T00:13:08;18.90;40.80
49731;DHT22;35622;52.008;5.426;2023-06-14T00:15:34;18.90;41.00
49731;DHT22;35622;52.008;5.426;2023-06-14T00:18:01;18.80;41.10
49731;DHT22;35622;52.008;5.426;2023-06-14T00:20:28;18.70;41.30
49731;DHT22;35622;52.008;5.426;2023-06-14T00:22:54;18.60;41.40
49731;DHT22;35622;52.008;5.426;2023-06-14T00:25:23;18.60;41.60
49731;DHT22;35622;52.008;5.426;2023-06-14T00:27:51;18.60;41.80
49731;DHT22;35622;52.008;5.426;2023-06-14T00:30:17;18.50;41.90
49731;DHT22;35622;52.008;5.426;2023-06-14T00:32:43;18.50;42.00
49731;DHT22;35622;52.008;5.426;2023-06-14T00:35:09;18.50;42.20
49731;DHT22;35622;52.008;5.426;2023-06-14T00:37:35;18.40;42.40
49731;DHT22;35622;52.008;5.426;2023-06-14T00:40:01;18.40;42.50
49731;DHT22;35622;52.008;5.426;2023-06-14T00:42:27;18.30;42.70
49731;DHT22;35622;52.008;5.426;2023-06-14T00:44:54;18.30;42.80
49731;DHT22;35622;52.008;5.426;2023-06-14T00:47:20;18.30;43.00
49731;DHT22;35622;52.008;5.426;2023-06-14T00:49:56;18.20;43.20
49731;DHT22;35622;52.008;5.426;2023-06-14T00:52:22;18.20;43.30
49731;DHT22;35622;52.008;5.426;2023-06-14T00:54:49;18.20;43.40
49731;DHT22;35622;52.008;5.426;2023-06-14T00:57:15;18.10;43.50
49731;DHT22;35622;52.008;5.426;2023-06-14T00:59:46;18.10;43.60
49731;DHT22;35622;52.008;5.426;2023-06-14T01:02:13;18.00;43.70
49731;DHT22;35622;52.008;5.426;2023-06-14T01:04:41;18.00;43.90
49731;DHT22;35622;52.008;5.426;2023-06-14T01:07:41;18.00;44.00
49731;DHT22;35622;52.008;5.426;2023-06-14T01:10:12;17.90;44.10
49731;DHT22;35622;52.008;5.426;2023-06-14T01:15:30;17.80;44.40
49731;DHT22;35622;52.008;5.426;2023-06-14T01:17:56;17.80;44.50
49731;DHT22;35622;52.008;5.426;2023-06-14T01:20:29;17.80;44.70
49731;DHT22;35622;52.008;5.426;2023-06-14T01:22:56;17.70;44.90
49731;DHT22;35622;52.008;5.426;2023-06-14T01:25:23;17.70;45.00
49731;DHT22;35622;52.008;5.426;2023-06-14T01:27:49;17.60;45.10
49731;DHT22;35622;52.008;5.426;2023-06-14T01:30:17;17.60;45.20
49731;DHT22;35622;52.008;5.426;2023-06-14T01:32:44;17.60;45.40
49731;DHT22;35622;52.008;5.426;2023-06-14T01:35:10;17.60;45.50
49731;DHT22;35622;52.008;5.426;2023-06-14T01:37:36;17.50;45.60
49731;DHT22;35622;52.008;5.426;2023-06-14T01:40:04;17.50;45.70
49731;DHT22;35622;52.008;5.426;2023-06-14T01:42:35;17.50;46.10
49731;DHT22;35622;52.008;5.426;2023-06-14T01:45:02;17.50;46.00
49731;DHT22;35622;52.008;5.426;2023-06-14T01:47:28;17.40;46.10
49731;DHT22;35622;52.008;5.426;2023-06-14T01:49:54;17.40;46.20
49731;DHT22;35622;52.008;5.426;2023-06-14T01:52:19;17.30;46.30
49731;DHT22;35622;52.008;5.426;2023-06-14T01:54:45;17.30;46.30
49731;DHT22;35622;52.008;5.426;2023-06-14T01:57:11;17.30;46.40
49731;DHT22;35622;52.008;5.426;2023-06-14T01:59:37;17.30;47.20
49731;DHT22;35622;52.008;5.426;2023-06-14T02:02:03;17.30;46.60
49731;DHT22;35622;52.008;5.426;2023-06-14T02:04:28;17.20;46.70
49731;DHT22;35622;52.008;5.426;2023-06-14T02:06:54;17.20;46.80
49731;DHT22;35622;52.008;5.426;2023-06-14T02:09:20;17.10;46.90
49731;DHT22;35622;52.008;5.426;2023-06-14T02:11:45;17.20;46.90
49731;DHT22;35622;52.008;5.426;2023-06-14T02:14:11;17.10;47.10
49731;DHT22;35622;52.008;5.426;2023-06-14T02:16:37;17.10;47.10
49731;DHT22;35622;52.008;5.426;2023-06-14T02:19:04;17.10;47.30
49731;DHT22;35622;52.008;5.426;2023-06-14T02:21:30;17.00;47.20
49731;DHT22;35622;52.008;5.426;2023-06-14T02:23:56;17.00;47.30
49731;DHT22;35622;52.008;5.426;2023-06-14T02:26:21;17.00;47.40
49731;DHT22;35622;52.008;5.426;2023-06-14T02:28:48;17.00;47.50
49731;DHT22;35622;52.008;5.426;2023-06-14T02:31:14;17.00;47.50
49731;DHT22;35622;52.008;5.426;2023-06-14T02:33:40;16.90;47.60
49731;DHT22;35622;52.008;5.426;2023-06-14T02:36:06;16.90;47.70
49731;DHT22;35622;52.008;5.426;2023-06-14T02:38:31;16.90;47.80
49731;DHT22;35622;52.008;5.426;2023-06-14T02:40:57;16.90;47.90
49731;DHT22;35622;52.008;5.426;2023-06-14T02:43:24;16.80;47.90
49731;DHT22;35622;52.008;5.426;2023-06-14T02:45:50;16.80;47.90
49731;DHT22;35622;52.008;5.426;2023-06-14T02:48:15;16.70;48.10
49731;DHT22;35622;52.008;5.426;2023-06-14T02:50:41;16.70;48.20
49731;DHT22;35622;52.008;5.426;2023-06-14T02:53:07;16.70;48.40
49731;DHT22;35622;52.008;5.426;2023-06-14T02:55:33;16.60;48.50
49731;DHT22;35622;52.008;5.426;2023-06-14T02:57:58;16.60;48.60
49731;DHT22;35622;52.008;5.426;2023-06-14T03:00:24;16.60;48.70
49731;DHT22;35622;52.008;5.426;2023-06-14T03:02:50;16.60;48.90
49731;DHT22;35622;52.008;5.426;2023-06-14T03:05:16;16.50;49.00
49731;DHT22;35622;52.008;5.426;2023-06-14T03:07:46;16.50;49.10
49731;DHT22;35622;52.008;5.426;2023-06-14T03:10:12;16.50;49.20
49731;DHT22;35622;52.008;5.426;2023-06-14T03:12:38;16.40;49.30
49731;DHT22;35622;52.008;5.426;2023-06-14T03:15:05;16.40;49.40
49731;DHT22;35622;52.008;5.426;2023-06-14T03:17:30;16.40;49.50
49731;DHT22;35622;52.008;5.426;2023-06-14T03:19:59;16.40;49.50
49731;DHT22;35622;52.008;5.426;2023-06-14T03:22:25;16.30;49.50
49731;DHT22;35622;52.008;5.426;2023-06-14T03:24:54;16.30;49.60
49731;DHT22;35622;52.008;5.426;2023-06-14T03:27:20;16.30;49.60
49731;DHT22;35622;52.008;5.426;2023-06-14T03:29:46;16.30;49.70
49731;DHT22;35622;52.008;5.426;2023-06-14T03:32:11;16.20;49.70
49731;DHT22;35622;52.008;5.426;2023-06-14T03:34:37;16.20;49.80
49731;DHT22;35622;52.008;5.426;2023-06-14T03:37:04;16.20;49.80
49731;DHT22;35622;52.008;5.426;2023-06-14T03:39:30;16.10;49.80
49731;DHT22;35622;52.008;5.426;2023-06-14T03:41:55;16.10;49.80
49731;DHT22;35622;52.008;5.426;2023-06-14T03:44:21;16.20;49.90
49731;DHT22;35622;52.008;5.426;2023-06-14T03:46:47;16.10;49.90
49731;DHT22;35622;52.008;5.426;2023-06-14T03:49:13;16.10;50.00
49731;DHT22;35622;52.008;5.426;2023-06-14T03:51:39;16.10;50.00
49731;DHT22;35622;52.008;5.426;2023-06-14T03:54:05;16.10;50.10
49731;DHT22;35622;52.008;5.426;2023-06-14T03:56:31;16.10;50.20
49731;DHT22;35622;52.008;5.426;2023-06-14T03:58:56;16.10;50.10
49731;DHT22;35622;52.008;5.426;2023-06-14T04:01:22;16.20;50.20
49731;DHT22;35622;52.008;5.426;2023-06-14T04:03:52;16.20;50.20
49731;DHT22;35622;52.008;5.426;2023-06-14T04:06:18;16.20;50.30
49731;DHT22;35622;52.008;5.426;2023-06-14T04:08:44;16.20;50.30
49731;DHT22;35622;52.008;5.426;2023-06-14T04:11:11;16.20;50.40
49731;DHT22;35622;52.008;5.426;2023-06-14T04:13:36;16.30;50.50
49731;DHT22;35622;52.008;5.426;2023-06-14T04:16:03;16.30;50.50
49731;DHT22;35622;52.008;5.426;2023-06-14T04:18:28;16.40;50.60
49731;DHT22;35622;52.008;5.426;2023-06-14T04:20:54;16.40;50.50
49731;DHT22;35622;52.008;5.426;2023-06-14T04:23:21;16.40;50.50
49731;DHT22;35622;52.008;5.426;2023-06-14T04:25:47;16.50;50.60
49731;DHT22;35622;52.008;5.426;2023-06-14T04:28:14;16.50;50.60
49731;DHT22;35622;52.008;5.426;2023-06-14T04:30:44;16.60;50.50
49731;DHT22;35622;52.008;5.426;2023-06-14T04:33:12;16.60;50.50
49731;DHT22;35622;52.008;5.426;2023-06-14T04:35:39;16.70;50.60
49731;DHT22;35622;52.008;5.426;2023-06-14T04:38:06;16.80;50.60
49731;DHT22;35622;52.008;5.426;2023-06-14T04:40:34;16.90;50.60
49731;DHT22;35622;52.008;5.426;2023-06-14T04:43:01;17.00;50.60
49731;DHT22;35622;52.008;5.426;2023-06-14T04:45:30;17.10;50.50
49731;DHT22;35622;52.008;5.426;2023-06-14T04:47:58;17.20;50.40
49731;DHT22;35622;52.008;5.426;2023-06-14T04:50:24;17.20;50.30
49731;DHT22;35622;52.008;5.426;2023-06-14T04:52:50;17.40;50.30
49731;DHT22;35622;52.008;5.426;2023-06-14T04:55:17;17.40;50.20
49731;DHT22;35622;52.008;5.426;2023-06-14T04:57:44;17.50;50.10
49731;DHT22;35622;52.008;5.426;2023-06-14T05:00:10;17.60;50.10
49731;DHT22;35622;52.008;5.426;2023-06-14T05:02:37;17.70;50.10
49731;DHT22;35622;52.008;5.426;2023-06-14T05:05:03;17.90;50.10
49731;DHT22;35622;52.008;5.426;2023-06-14T05:07:32;18.00;50.00
49731;DHT22;35622;52.008;5.426;2023-06-14T05:09:59;18.20;50.00
49731;DHT22;35622;52.008;5.426;2023-06-14T05:12:24;18.40;49.90
49731;DHT22;35622;52.008;5.426;2023-06-14T05:14:50;18.60;49.90
49731;DHT22;35622;52.008;5.426;2023-06-14T05:17:15;18.80;49.80
49731;DHT22;35622;52.008;5.426;2023-06-14T05:19:42;19.10;50.00
49731;DHT22;35622;52.008;5.426;2023-06-14T05:22:08;19.60;49.90
49731;DHT22;35622;52.008;5.426;2023-06-14T05:24:33;20.10;49.00
49731;DHT22;35622;52.008;5.426;2023-06-14T05:27:00;20.50;47.90
49731;DHT22;35622;52.008;5.426;2023-06-14T05:29:25;20.70;46.80
49731;DHT22;35622;52.008;5.426;2023-06-14T05:31:51;21.00;45.90
49731;DHT22;35622;52.008;5.426;2023-06-14T05:34:16;21.10;45.20
49731;DHT22;35622;52.008;5.426;2023-06-14T05:36:42;21.20;44.30
49731;DHT22;35622;52.008;5.426;2023-06-14T05:39:08;21.30;43.90
49731;DHT22;35622;52.008;5.426;2023-06-14T05:41:33;21.50;43.50
49731;DHT22;35622;52.008;5.426;2023-06-14T05:43:59;21.60;43.10
49731;DHT22;35622;52.008;5.426;2023-06-14T05:46:25;21.80;42.90
49731;DHT22;35622;52.008;5.426;2023-06-14T05:48:52;22.20;42.70
49731;DHT22;35622;52.008;5.426;2023-06-14T05:51:17;22.70;41.90
49731;DHT22;35622;52.008;5.426;2023-06-14T05:53:47;23.20;40.40
49731;DHT22;35622;52.008;5.426;2023-06-14T05:56:13;23.70;39.30
49731;DHT22;35622;52.008;5.426;2023-06-14T05:58:39;23.90;38.00
49731;DHT22;35622;52.008;5.426;2023-06-14T06:01:05;24.00;37.60
49731;DHT22;35622;52.008;5.426;2023-06-14T06:03:31;24.10;37.20
49731;DHT22;35622;52.008;5.426;2023-06-14T06:05:58;24.00;37.30
49731;DHT22;35622;52.008;5.426;2023-06-14T06:08:23;24.30;37.20
49731;DHT22;35622;52.008;5.426;2023-06-14T06:10:49;25.00;36.70
49731;DHT22;35622;52.008;5.426;2023-06-14T06:13:14;26.80;35.50
49731;DHT22;35622;52.008;5.426;2023-06-14T06:15:41;29.10;32.60
49731;DHT22;35622;52.008;5.426;2023-06-14T06:18:06;31.30;29.70
49731;DHT22;35622;52.008;5.426;2023-06-14T06:20:32;33.10;26.90
49731;DHT22;35622;52.008;5.426;2023-06-14T06:23:00;34.10;24.60
49731;DHT22;35622;52.008;5.426;2023-06-14T06:25:26;35.20;22.60
49731;DHT22;35622;52.008;5.426;2023-06-14T06:27:53;36.50;21.60
49731;DHT22;35622;52.008;5.426;2023-06-14T06:30:19;38.00;20.70
49731;DHT22;35622;52.008;5.426;2023-06-14T06:32:45;38.70;18.70
49731;DHT22;35622;52.008;5.426;2023-06-14T06:35:11;39.60;17.80
49731;DHT22;35622;52.008;5.426;2023-06-14T06:37:38;40.10;16.40
49731;DHT22;35622;52.008;5.426;2023-06-14T06:40:04;40.50;16.00
49731;DHT22;35622;52.008;5.426;2023-06-14T06:42:31;41.20;15.40
49731;DHT22;35622;52.008;5.426;2023-06-14T06:44:57;41.40;15.00
49731;DHT22;35622;52.008;5.426;2023-06-14T06:47:23;42.00;14.80
49731;DHT22;35622;52.008;5.426;2023-06-14T06:49:49;42.50;14.50
49731;DHT22;35622;52.008;5.426;2023-06-14T06:52:14;42.90;13.80
49731;DHT22;35622;52.008;5.426;2023-06-14T06:54:40;43.50;13.90
49731;DHT22;35622;52.008;5.426;2023-06-14T06:57:06;43.80;13.20
49731;DHT22;35622;52.008;5.426;2023-06-14T06:59:32;44.10;13.20
49731;DHT22;35622;52.008;5.426;2023-06-14T07:01:58;44.60;12.90
49731;DHT22;35622;52.008;5.426;2023-06-14T07:04:24;45.00;13.00
49731;DHT22;35622;52.008;5.426;2023-06-14T07:06:49;45.80;12.50
49731;DHT22;35622;52.008;5.426;2023-06-14T07:09:16;46.30;11.70
49731;DHT22;35622;52.008;5.426;2023-06-14T07:11:43;46.60;11.80
49731;DHT22;35622;52.008;5.426;2023-06-14T07:14:08;46.90;11.70
49731;DHT22;35622;52.008;5.426;2023-06-14T07:16:34;47.40;11.40
49731;DHT22;35622;52.008;5.426;2023-06-14T07:19:02;48.00;11.20
49731;DHT22;35622;52.008;5.426;2023-06-14T07:21:27;48.30;10.90
49731;DHT22;35622;52.008;5.426;2023-06-14T07:23:53;48.30;10.10
49731;DHT22;35622;52.008;5.426;2023-06-14T07:26:19;47.90;10.00
49731;DHT22;35622;52.008;5.426;2023-06-14T07:28:46;47.40;10.40
49731;DHT22;35622;52.008;5.426;2023-06-14T07:31:12;47.40;10.50
49731;DHT22;35622;52.008;5.426;2023-06-14T07:33:38;47.60;10.60
49731;DHT22;35622;52.008;5.426;2023-06-14T07:36:03;47.50;10.30
49731;DHT22;35622;52.008;5.426;2023-06-14T07:38:29;47.50;10.40
49731;DHT22;35622;52.008;5.426;2023-06-14T07:40:55;47.60;10.20
49731;DHT22;35622;52.008;5.426;2023-06-14T07:43:20;47.80;9.90
49731;DHT22;35622;52.008;5.426;2023-06-14T07:45:46;48.10;10.00
49731;DHT22;35622;52.008;5.426;2023-06-14T07:48:11;48.00;9.80
49731;DHT22;35622;52.008;5.426;2023-06-14T07:50:37;47.80;9.70
49731;DHT22;35622;52.008;5.426;2023-06-14T07:53:02;47.80;9.90
49731;DHT22;35622;52.008;5.426;2023-06-14T07:55:28;48.40;10.00
49731;DHT22;35622;52.008;5.426;2023-06-14T07:57:54;49.00;9.80
49731;DHT22;35622;52.008;5.426;2023-06-14T08:00:20;49.30;9.30
49731;DHT22;35622;52.008;5.426;2023-06-14T08:02:46;48.80;8.90
49731;DHT22;35622;52.008;5.426;2023-06-14T08:05:12;48.80;9.10
49731;DHT22;35622;52.008;5.426;2023-06-14T08:07:41;48.80;9.10
49731;DHT22;35622;52.008;5.426;2023-06-14T08:10:06;48.80;9.40
49731;DHT22;35622;52.008;5.426;2023-06-14T08:12:33;48.90;9.00
49731;DHT22;35622;52.008;5.426;2023-06-14T08:14:59;49.10;8.80
49731;DHT22;35622;52.008;5.426;2023-06-14T08:17:24;49.00;8.80
49731;DHT22;35622;52.008;5.426;2023-06-14T08:19:50;49.00;8.60
49731;DHT22;35622;52.008;5.426;2023-06-14T08:22:16;49.20;8.60
49731;DHT22;35622;52.008;5.426;2023-06-14T08:24:43;49.90;8.80
49731;DHT22;35622;52.008;5.426;2023-06-14T08:27:09;51.10;8.50
49731;DHT22;35622;52.008;5.426;2023-06-14T08:29:35;52.00;8.10
49731;DHT22;35622;52.008;5.426;2023-06-14T08:32:01;52.60;7.80
49731;DHT22;35622;52.008;5.426;2023-06-14T08:34:27;52.60;7.30
49731;DHT22;35622;52.008;5.426;2023-06-14T08:36:53;52.10;7.30
49731;DHT22;35622;52.008;5.426;2023-06-14T08:39:18;51.90;8.00
49731;DHT22;35622;52.008;5.426;2023-06-14T08:41:47;51.50;7.10
49731;DHT22;35622;52.008;5.426;2023-06-14T08:44:16;51.40;7.30
49731;DHT22;35622;52.008;5.426;2023-06-14T08:46:43;51.30;7.60
49731;DHT22;35622;52.008;5.426;2023-06-14T08:49:11;51.20;7.40
49731;DHT22;35622;52.008;5.426;2023-06-14T08:51:37;51.70;7.60
49731;DHT22;35622;52.008;5.426;2023-06-14T08:54:03;52.60;7.30
49731;DHT22;35622;52.008;5.426;2023-06-14T08:56:30;53.30;6.90
49731;DHT22;35622;52.008;5.426;2023-06-14T08:58:58;53.80;6.70
49731;DHT22;35622;52.008;5.426;2023-06-14T09:01:28;54.40;6.80
49731;DHT22;35622;52.008;5.426;2023-06-14T09:03:54;55.40;6.60
49731;DHT22;35622;52.008;5.426;2023-06-14T09:06:23;55.70;6.30
49731;DHT22;35622;52.008;5.426;2023-06-14T09:08:50;56.30;6.10
49731;DHT22;35622;52.008;5.426;2023-06-14T09:11:17;56.20;5.60
49731;DHT22;35622;52.008;5.426;2023-06-14T09:13:45;55.60;5.50
49731;DHT22;35622;52.008;5.426;2023-06-14T09:16:11;55.60;5.70
49731;DHT22;35622;52.008;5.426;2023-06-14T09:18:42;55.20;5.50
49731;DHT22;35622;52.008;5.426;2023-06-14T09:21:13;55.10;5.70
49731;DHT22;35622;52.008;5.426;2023-06-14T09:23:46;54.70;5.60
49731;DHT22;35622;52.008;5.426;2023-06-14T09:26:18;53.80;5.70
49731;DHT22;35622;52.008;5.426;2023-06-14T09:28:46;53.00;6.00
49731;DHT22;35622;52.008;5.426;2023-06-14T09:31:13;53.20;6.20
49731;DHT22;35622;52.008;5.426;2023-06-14T09:33:42;53.60;6.10
49731;DHT22;35622;52.008;5.426;2023-06-14T09:36:13;53.50;5.90
49731;DHT22;35622;52.008;5.426;2023-06-14T09:38:40;53.40;5.90
49731;DHT22;35622;52.008;5.426;2023-06-14T09:41:06;53.10;5.80
49731;DHT22;35622;52.008;5.426;2023-06-14T09:43:33;53.30;5.90
49731;DHT22;35622;52.008;5.426;2023-06-14T09:46:00;53.90;5.80
49731;DHT22;35622;52.008;5.426;2023-06-14T09:48:26;54.10;5.70
49731;DHT22;35622;52.008;5.426;2023-06-14T09:50:51;54.00;5.50
49731;DHT22;35622;52.008;5.426;2023-06-14T09:53:21;54.00;5.70
49731;DHT22;35622;52.008;5.426;2023-06-14T09:55:52;54.40;6.20
49731;DHT22;35622;52.008;5.426;2023-06-14T09:58:20;54.30;5.40
49731;DHT22;35622;52.008;5.426;2023-06-14T10:00:50;54.30;5.70
49731;DHT22;35622;52.008;5.426;2023-06-14T10:03:24;54.30;5.30
49731;DHT22;35622;52.008;5.426;2023-06-14T10:05:50;54.10;5.40
49731;DHT22;35622;52.008;5.426;2023-06-14T10:08:19;53.80;5.50
49731;DHT22;35622;52.008;5.426;2023-06-14T10:10:45;53.80;5.90
49731;DHT22;35622;52.008;5.426;2023-06-14T10:13:12;54.30;5.70
49731;DHT22;35622;52.008;5.426;2023-06-14T10:15:42;54.00;5.50
49731;DHT22;35622;52.008;5.426;2023-06-14T10:18:24;54.00;5.80
49731;DHT22;35622;52.008;5.426;2023-06-14T10:21:00;53.90;5.70
49731;DHT22;35622;52.008;5.426;2023-06-14T10:23:30;54.10;5.70
49731;DHT22;35622;52.008;5.426;2023-06-14T10:25:57;53.80;5.60
49731;DHT22;35622;52.008;5.426;2023-06-14T10:28:25;53.90;5.60
49731;DHT22;35622;52.008;5.426;2023-06-14T10:31:04;53.30;5.50
49731;DHT22;35622;52.008;5.426;2023-06-14T10:33:31;53.20;6.00
49731;DHT22;35622;52.008;5.426;2023-06-14T10:38:57;52.90;5.90
49731;DHT22;35622;52.008;5.426;2023-06-14T10:41:23;52.60;6.10
49731;DHT22;35622;52.008;5.426;2023-06-14T10:43:51;52.80;6.40
49731;DHT22;35622;52.008;5.426;2023-06-14T10:46:19;52.60;6.10
49731;DHT22;35622;52.008;5.426;2023-06-14T10:48:48;52.20;6.10
49731;DHT22;35622;52.008;5.426;2023-06-14T10:51:18;51.70;6.10
49731;DHT22;35622;52.008;5.426;2023-06-14T10:53:48;51.60;6.30
49731;DHT22;35622;52.008;5.426;2023-06-14T10:58:50;51.80;6.40
49731;DHT22;35622;52.008;5.426;2023-06-14T11:01:28;52.10;6.30
49731;DHT22;35622;52.008;5.426;2023-06-14T11:04:00;51.80;6.60
49731;DHT22;35622;52.008;5.426;2023-06-14T11:06:43;52.00;6.60
49731;DHT22;35622;52.008;5.426;2023-06-14T11:11:54;52.00;6.40
49731;DHT22;35622;52.008;5.426;2023-06-14T11:14:20;52.10;6.50
49731;DHT22;35622;52.008;5.426;2023-06-14T11:16:50;51.90;6.70
49731;DHT22;35622;52.008;5.426;2023-06-14T11:19:15;51.90;6.40
49731;DHT22;35622;52.008;5.426;2023-06-14T11:21:42;51.70;6.50
49731;DHT22;35622;52.008;5.426;2023-06-14T11:24:11;52.00;6.60
49731;DHT22;35622;52.008;5.426;2023-06-14T11:26:38;52.20;6.30
49731;DHT22;35622;52.008;5.426;2023-06-14T11:29:04;51.90;6.20
49731;DHT22;35622;52.008;5.426;2023-06-14T11:31:29;51.60;6.30
49731;DHT22;35622;52.008;5.426;2023-06-14T11:34:00;51.40;6.30
49731;DHT22;35622;52.008;5.426;2023-06-14T11:36:28;51.20;6.50
49731;DHT22;35622;52.008;5.426;2023-06-14T11:41:25;51.80;6.60
49731;DHT22;35622;52.008;5.426;2023-06-14T11:43:57;52.20;6.80
49731;DHT22;35622;52.008;5.426;2023-06-14T11:46:25;52.50;6.80
49731;DHT22;35622;52.008;5.426;2023-06-14T11:48:51;52.60;6.20
49731;DHT22;35622;52.008;5.426;2023-06-14T11:51:18;52.70;6.30
49731;DHT22;35622;52.008;5.426;2023-06-14T11:53:44;52.60;6.00
49731;DHT22;35622;52.008;5.426;2023-06-14T11:56:11;52.00;6.20
49731;DHT22;35622;52.008;5.426;2023-06-14T11:58:37;51.80;6.20
49731;DHT22;35622;52.008;5.426;2023-06-14T12:01:05;51.60;6.40
49731;DHT22;35622;52.008;5.426;2023-06-14T12:03:31;51.30;6.10
49731;DHT22;35622;52.008;5.426;2023-06-14T12:06:05;50.30;6.40
49731;DHT22;35622;52.008;5.426;2023-06-14T12:08:36;49.80;6.50
49731;DHT22;35622;52.008;5.426;2023-06-14T12:11:14;49.40;7.10
49731;DHT22;35622;52.008;5.426;2023-06-14T12:13:43;49.20;7.10
49731;DHT22;35622;52.008;5.426;2023-06-14T12:16:10;49.20;8.10
49731;DHT22;35622;52.008;5.426;2023-06-14T12:18:37;49.30;7.40
49731;DHT22;35622;52.008;5.426;2023-06-14T12:21:07;48.80;7.40
49731;DHT22;35622;52.008;5.426;2023-06-14T12:23:59;48.00;7.60
49731;DHT22;35622;52.008;5.426;2023-06-14T12:26:24;46.00;8.20
49731;DHT22;35622;52.008;5.426;2023-06-14T12:28:51;44.30;9.00
49731;DHT22;35622;52.008;5.426;2023-06-14T12:31:17;42.60;9.90
49731;DHT22;35622;52.008;5.426;2023-06-14T12:33:44;41.30;10.80
49731;DHT22;35622;52.008;5.426;2023-06-14T12:36:11;40.40;11.10
49731;DHT22;35622;52.008;5.426;2023-06-14T12:38:37;39.40;11.80
49731;DHT22;35622;52.008;5.426;2023-06-14T12:41:03;38.50;12.50
49731;DHT22;35622;52.008;5.426;2023-06-14T12:43:28;37.40;13.10
49731;DHT22;35622;52.008;5.426;2023-06-14T12:45:54;36.60;13.70
49731;DHT22;35622;52.008;5.426;2023-06-14T12:48:20;36.10;14.40
49731;DHT22;35622;52.008;5.426;2023-06-14T12:50:47;35.60;14.70
49731;DHT22;35622;52.008;5.426;2023-06-14T12:53:13;35.10;14.90
49731;DHT22;35622;52.008;5.426;2023-06-14T12:55:39;34.80;15.50
49731;DHT22;35622;52.008;5.426;2023-06-14T12:58:04;34.50;15.30
49731;DHT22;35622;52.008;5.426;2023-06-14T13:00:30;34.30;15.70
49731;DHT22;35622;52.008;5.426;2023-06-14T13:02:56;34.30;16.70
49731;DHT22;35622;52.008;5.426;2023-06-14T13:05:22;34.10;16.20
49731;DHT22;35622;52.008;5.426;2023-06-14T13:07:47;34.00;16.30
49731;DHT22;35622;52.008;5.426;2023-06-14T13:10:13;33.90;16.90
49731;DHT22;35622;52.008;5.426;2023-06-14T13:12:39;33.90;18.10
49731;DHT22;35622;52.008;5.426;2023-06-14T13:15:05;33.80;18.00
49731;DHT22;35622;52.008;5.426;2023-06-14T13:17:32;33.80;18.20
49731;DHT22;35622;52.008;5.426;2023-06-14T13:19:58;33.70;17.50
49731;DHT22;35622;52.008;5.426;2023-06-14T13:22:25;33.40;17.00
49731;DHT22;35622;52.008;5.426;2023-06-14T13:24:50;33.30;17.60
49731;DHT22;35622;52.008;5.426;2023-06-14T13:27:16;33.20;17.90
49731;DHT22;35622;52.008;5.426;2023-06-14T13:29:41;33.10;18.20
49731;DHT22;35622;52.008;5.426;2023-06-14T13:32:07;33.00;18.20
49731;DHT22;35622;52.008;5.426;2023-06-14T13:34:33;32.90;18.50
49731;DHT22;35622;52.008;5.426;2023-06-14T13:36:58;32.80;18.90
49731;DHT22;35622;52.008;5.426;2023-06-14T13:39:25;32.80;18.90
49731;DHT22;35622;52.008;5.426;2023-06-14T13:41:50;32.80;18.90
49731;DHT22;35622;52.008;5.426;2023-06-14T13:44:16;32.80;19.00
49731;DHT22;35622;52.008;5.426;2023-06-14T13:46:44;33.00;19.30
49731;DHT22;35622;52.008;5.426;2023-06-14T13:49:10;33.00;18.90
49731;DHT22;35622;52.008;5.426;2023-06-14T13:51:35;33.00;19.00
49731;DHT22;35622;52.008;5.426;2023-06-14T13:54:01;32.90;19.20
49731;DHT22;35622;52.008;5.426;2023-06-14T13:56:27;32.90;18.90
49731;DHT22;35622;52.008;5.426;2023-06-14T13:58:52;32.90;18.80
49731;DHT22;35622;52.008;5.426;2023-06-14T14:01:18;32.80;18.50
49731;DHT22;35622;52.008;5.426;2023-06-14T14:03:48;32.70;18.30
49731;DHT22;35622;52.008;5.426;2023-06-14T14:06:15;32.60;18.50
49731;DHT22;35622;52.008;5.426;2023-06-14T14:08:41;32.50;18.60
49731;DHT22;35622;52.008;5.426;2023-06-14T14:11:07;32.50;18.70
49731;DHT22;35622;52.008;5.426;2023-06-14T14:13:33;32.50;18.70
49731;DHT22;35622;52.008;5.426;2023-06-14T14:15:59;32.40;18.50
49731;DHT22;35622;52.008;5.426;2023-06-14T14:18:25;32.40;18.60
49731;DHT22;35622;52.008;5.426;2023-06-14T14:20:50;32.30;18.50
49731;DHT22;35622;52.008;5.426;2023-06-14T14:23:16;32.30;18.80
49731;DHT22;35622;52.008;5.426;2023-06-14T14:25:41;32.30;18.50
49731;DHT22;35622;52.008;5.426;2023-06-14T14:28:07;32.10;18.00
49731;DHT22;35622;52.008;5.426;2023-06-14T14:30:33;31.90;18.30
49731;DHT22;35622;52.008;5.426;2023-06-14T14:32:59;31.80;18.60
49731;DHT22;35622;52.008;5.426;2023-06-14T14:35:24;31.80;18.90
49731;DHT22;35622;52.008;5.426;2023-06-14T14:37:55;31.80;18.90
49731;DHT22;35622;52.008;5.426;2023-06-14T14:40:21;31.70;18.50
49731;DHT22;35622;52.008;5.426;2023-06-14T14:42:47;31.60;18.90
49731;DHT22;35622;52.008;5.426;2023-06-14T14:45:12;31.60;18.70
49731;DHT22;35622;52.008;5.426;2023-06-14T14:47:38;31.60;19.10
49731;DHT22;35622;52.008;5.426;2023-06-14T14:50:04;31.60;19.10
49731;DHT22;35622;52.008;5.426;2023-06-14T14:52:34;31.70;19.50
49731;DHT22;35622;52.008;5.426;2023-06-14T14:55:00;31.70;19.70
49731;DHT22;35622;52.008;5.426;2023-06-14T14:57:26;31.70;19.10
49731;DHT22;35622;52.008;5.426;2023-06-14T14:59:52;31.70;19.10
49731;DHT22;35622;52.008;5.426;2023-06-14T15:02:17;31.60;19.10
49731;DHT22;35622;52.008;5.426;2023-06-14T15:04:44;31.50;19.20
49731;DHT22;35622;52.008;5.426;2023-06-14T15:07:10;31.50;19.50
49731;DHT22;35622;52.008;5.426;2023-06-14T15:09:35;31.50;19.70
49731;DHT22;35622;52.008;5.426;2023-06-14T15:12:01;31.50;19.80
49731;DHT22;35622;52.008;5.426;2023-06-14T15:14:26;31.50;19.70
49731;DHT22;35622;52.008;5.426;2023-06-14T15:16:52;31.50;19.70
49731;DHT22;35622;52.008;5.426;2023-06-14T15:19:18;31.50;19.90
49731;DHT22;35622;52.008;5.426;2023-06-14T15:21:43;31.50;20.10
49731;DHT22;35622;52.008;5.426;2023-06-14T15:24:09;31.50;20.00
49731;DHT22;35622;52.008;5.426;2023-06-14T15:26:34;31.40;19.90
49731;DHT22;35622;52.008;5.426;2023-06-14T15:29:00;31.30;19.90
49731;DHT22;35622;52.008;5.426;2023-06-14T15:31:26;31.20;20.10
49731;DHT22;35622;52.008;5.426;2023-06-14T15:33:53;31.20;20.00
49731;DHT22;35622;52.008;5.426;2023-06-14T15:36:19;31.20;19.90
49731;DHT22;35622;52.008;5.426;2023-06-14T15:38:45;31.10;19.70
49731;DHT22;35622;52.008;5.426;2023-06-14T15:41:10;30.90;19.70
49731;DHT22;35622;52.008;5.426;2023-06-14T15:43:36;30.90;20.10
49731;DHT22;35622;52.008;5.426;2023-06-14T15:46:01;30.80;19.80